createdAt,value
2014-07-01T07:26:34.172Z,726
2014-07-01T07:26:51.391Z,727
2014-07-01T07:27:08.219Z,727
2014-07-01T07:27:24.469Z,727
2014-07-01T07:27:40.534Z,727
2014-07-01T07:27:57.346Z,727
2014-07-01T07:28:13.424Z,727
2014-07-01T07:28:29.534Z,727
2014-07-01T07:28:45.723Z,727
2014-07-01T07:29:01.801Z,727
2014-07-01T07:29:19.192Z,727
2014-07-01T07:29:35.942Z,728
2014-07-01T07:29:53.382Z,728
2014-07-01T07:30:09.961Z,729
2014-07-01T07:30:26.679Z,730
2014-07-01T07:30:43.476Z,730
2014-07-01T07:30:59.572Z,730
2014-07-01T07:31:15.806Z,730
2014-07-01T07:31:31.869Z,730
2014-07-01T07:31:48.604Z,729
2014-07-01T07:32:05.214Z,730
2014-07-01T07:32:21.339Z,730
2014-07-01T07:32:38.104Z,730
2014-07-01T07:32:54.184Z,731
2014-07-01T07:33:10.216Z,731
2014-07-01T07:33:26.309Z,731
2014-07-01T07:33:43.669Z,731
2014-07-01T07:33:59.797Z,731
2014-07-01T07:34:16.594Z,731
2014-07-01T07:34:33.312Z,730
2014-07-01T07:34:49.422Z,729
2014-07-01T07:35:06.049Z,730
2014-07-01T07:35:22.096Z,731
2014-07-01T07:35:40.080Z,731
2014-07-01T07:35:56.283Z,732
2014-07-01T07:36:12.410Z,732
2014-07-01T07:36:29.113Z,731
2014-07-01T07:36:45.191Z,732
2014-07-01T07:37:02.582Z,733
2014-07-01T07:37:19.803Z,732
2014-07-01T07:37:36.506Z,733
2014-07-01T07:37:55.068Z,734
2014-07-01T07:38:12.240Z,734
2014-07-01T07:38:30.711Z,734
2014-07-01T07:38:48.680Z,735
2014-07-01T07:39:06.039Z,735
2014-07-01T07:39:23.885Z,735
2014-07-01T07:39:41.229Z,735
2014-07-01T07:39:59.729Z,736
2014-07-01T07:40:17.088Z,736
2014-07-01T07:40:34.449Z,736
2014-07-01T07:40:52.418Z,736
2014-07-01T07:41:10.449Z,736
2014-07-01T07:41:27.949Z,736
2014-07-01T07:41:45.359Z,736
2014-07-01T07:42:02.687Z,736
2014-07-01T07:42:20.577Z,737
2014-07-01T07:42:38.500Z,737
2014-07-01T07:42:55.797Z,737
2014-07-01T07:43:13.860Z,737
2014-07-01T07:43:29.938Z,737
2014-07-01T07:43:47.174Z,738
2014-07-01T07:44:04.002Z,738
2014-07-01T07:44:22.018Z,738
2014-07-01T07:44:38.737Z,739
2014-07-01T07:44:55.410Z,739
2014-07-01T07:45:12.098Z,739
2014-07-01T07:45:28.160Z,740
2014-07-01T07:45:44.332Z,740
2014-07-01T07:46:00.492Z,740
2014-07-01T07:46:16.601Z,740
2014-07-01T07:46:32.695Z,740
2014-07-01T07:46:48.820Z,740
2014-07-01T07:47:04.914Z,741
2014-07-01T07:47:21.102Z,740
2014-07-01T07:47:37.196Z,740
2014-07-01T07:47:53.399Z,740
2014-07-01T07:48:09.542Z,741
2014-07-01T07:48:25.730Z,741
2014-07-01T07:48:41.964Z,741
2014-07-01T07:48:58.714Z,741
2014-07-01T07:49:14.826Z,741
2014-07-01T07:49:30.779Z,742
2014-07-01T07:49:46.810Z,743
2014-07-01T07:50:03.560Z,742
2014-07-01T07:50:20.234Z,742
2014-07-01T07:50:37.031Z,743
2014-07-01T07:50:53.156Z,743
2014-07-01T07:51:09.234Z,743
2014-07-01T07:51:25.361Z,744
2014-07-01T07:51:42.095Z,744
2014-07-01T07:52:00.048Z,744
2014-07-01T07:52:16.127Z,744
2014-07-01T07:52:32.738Z,745
2014-07-01T07:52:48.910Z,745
2014-07-01T07:53:04.988Z,745
2014-07-01T07:53:21.754Z,745
2014-07-01T07:53:37.709Z,745
2014-07-01T07:53:54.490Z,746
2014-07-01T07:54:10.584Z,746
2014-07-01T07:54:26.820Z,746
2014-07-01T07:54:44.070Z,746
2014-07-01T07:55:00.883Z,747
2014-07-01T07:55:16.992Z,747
2014-07-01T07:55:33.791Z,747
2014-07-01T07:55:49.869Z,748
2014-07-01T07:56:05.947Z,748
2014-07-01T07:56:22.025Z,748
2014-07-01T07:56:38.168Z,749
2014-07-01T07:56:54.262Z,749
2014-07-01T07:57:10.371Z,749
2014-07-01T07:57:27.058Z,749
2014-07-01T07:57:43.154Z,749
2014-07-01T07:57:59.357Z,749
2014-07-01T07:58:15.295Z,749
2014-07-01T07:58:31.420Z,749
2014-07-01T07:58:47.547Z,748
2014-07-01T07:59:04.250Z,748
2014-07-01T07:59:20.312Z,748
2014-07-01T07:59:36.437Z,748
2014-07-01T07:59:53.143Z,747
2014-07-01T08:00:09.877Z,748
2014-07-01T08:00:26.049Z,748
2014-07-01T08:00:43.361Z,748
2014-07-01T08:00:59.504Z,748
2014-07-01T08:01:15.598Z,749
2014-07-01T08:01:31.676Z,749
2014-07-01T08:01:47.738Z,749
2014-07-01T08:02:03.990Z,749
2014-07-01T08:02:20.772Z,749
2014-07-01T08:02:37.537Z,749
2014-07-01T08:02:54.209Z,749
2014-07-01T08:03:10.384Z,750
2014-07-01T08:03:27.775Z,751
2014-07-01T08:03:44.540Z,752
2014-07-01T08:04:00.665Z,753
2014-07-01T08:04:16.652Z,753
2014-07-01T08:04:34.042Z,753
2014-07-01T08:04:50.167Z,754
2014-07-01T08:05:07.558Z,754
2014-07-01T08:05:23.529Z,755
2014-07-01T08:05:40.966Z,755
2014-07-01T08:05:57.732Z,755
2014-07-01T08:06:14.531Z,756
2014-07-01T08:06:30.656Z,756
2014-07-01T08:06:46.656Z,756
2014-07-01T08:07:03.390Z,755
2014-07-01T08:07:20.079Z,756
2014-07-01T08:07:36.283Z,756
2014-07-01T08:07:53.642Z,756
2014-07-01T08:08:09.783Z,756
2014-07-01T08:08:25.863Z,756
2014-07-01T08:08:42.613Z,756
2014-07-01T08:08:58.691Z,756
2014-07-01T08:09:14.879Z,756
2014-07-01T08:09:30.926Z,756
2014-07-01T08:09:46.926Z,756
2014-07-01T08:10:03.114Z,756
2014-07-01T08:10:19.772Z,757
2014-07-01T08:10:36.491Z,757
2014-07-01T08:10:52.631Z,757
2014-07-01T08:11:08.741Z,757
2014-07-01T08:11:24.852Z,758
2014-07-01T08:11:40.961Z,758
2014-07-01T08:11:56.915Z,758
2014-07-01T08:12:13.042Z,758
2014-07-01T08:12:29.120Z,759
2014-07-01T08:12:45.182Z,759
2014-07-01T08:13:02.104Z,759
2014-07-01T08:13:18.919Z,758
2014-07-01T08:13:35.434Z,758
2014-07-01T08:13:52.247Z,759
2014-07-01T08:14:08.950Z,759
2014-07-01T08:14:25.639Z,759
2014-07-01T08:14:41.749Z,759
2014-07-01T08:14:57.811Z,759
2014-07-01T08:15:13.844Z,758
2014-07-01T08:15:30.048Z,758
2014-07-01T08:15:46.141Z,758
2014-07-01T08:16:02.251Z,758
2014-07-01T08:16:19.017Z,754
2014-07-01T08:16:35.611Z,755
2014-07-01T08:16:51.705Z,719
2014-07-01T08:17:07.627Z,754
2014-07-01T08:17:23.770Z,713
2014-07-01T08:17:39.973Z,739
2014-07-01T08:17:56.067Z,744
2014-07-01T08:18:12.270Z,756
2014-07-01T08:18:29.209Z,756
2014-07-01T08:18:45.334Z,757
2014-07-01T08:19:01.490Z,757
2014-07-01T08:19:17.477Z,757
2014-07-01T08:19:33.696Z,757
2014-07-01T08:19:50.493Z,758
2014-07-01T08:20:07.306Z,758
2014-07-01T08:20:24.636Z,759
2014-07-01T08:20:40.761Z,759
2014-07-01T08:20:56.839Z,760
2014-07-01T08:21:12.995Z,760
2014-07-01T08:21:29.716Z,760
2014-07-01T08:21:46.497Z,760
2014-07-01T08:22:02.560Z,760
2014-07-01T08:22:18.687Z,760
2014-07-01T08:22:35.343Z,761
2014-07-01T08:22:51.546Z,762
2014-07-01T08:23:07.671Z,762
2014-07-01T08:23:23.720Z,762
2014-07-01T08:23:40.454Z,762
2014-07-01T08:23:57.204Z,763
2014-07-01T08:24:14.485Z,763
2014-07-01T08:24:30.581Z,764
2014-07-01T08:24:46.706Z,765
2014-07-01T08:25:15.472Z,521
2014-07-01T08:25:33.442Z,542
2014-07-01T08:25:50.723Z,766
2014-07-01T08:26:08.645Z,758
2014-07-01T08:26:24.756Z,732
2014-07-01T08:26:40.928Z,522
2014-07-01T08:26:57.694Z,510
2014-07-01T08:27:14.444Z,497
2014-07-01T08:27:30.555Z,498
2014-07-01T08:27:46.571Z,712
2014-07-01T08:28:02.727Z,736
2014-07-01T08:28:18.852Z,744
2014-07-01T08:28:35.573Z,611
2014-07-01T08:28:51.666Z,537
2014-07-01T08:29:08.994Z,546
2014-07-01T08:29:25.762Z,524
2014-07-01T08:29:41.918Z,747
2014-07-01T08:29:57.996Z,768
2014-07-01T08:30:14.090Z,735
2014-07-01T08:30:30.295Z,704
2014-07-01T08:30:46.420Z,702
2014-07-01T08:31:02.467Z,734
2014-07-01T08:31:18.623Z,769
2014-07-01T08:31:34.657Z,768
2014-07-01T08:31:50.860Z,766
2014-07-01T08:32:06.938Z,765
2014-07-01T08:32:23.112Z,765
2014-07-01T08:32:39.268Z,764
2014-07-01T08:32:56.065Z,764
2014-07-01T08:33:12.127Z,763
2014-07-01T08:33:28.223Z,763
2014-07-01T08:33:45.708Z,762
2014-07-01T08:34:01.848Z,762
2014-07-01T08:34:18.598Z,762
2014-07-01T08:34:34.709Z,763
2014-07-01T08:34:50.818Z,763
2014-07-01T08:35:06.974Z,764
2014-07-01T08:35:23.007Z,765
2014-07-01T08:35:39.070Z,765
2014-07-01T08:35:55.773Z,764
2014-07-01T08:36:12.351Z,763
2014-07-01T08:36:29.697Z,763
2014-07-01T08:36:47.634Z,763
2014-07-01T08:37:05.009Z,763
2014-07-01T08:37:21.558Z,763
2014-07-01T08:37:37.636Z,763
2014-07-01T08:37:53.574Z,763
2014-07-01T08:38:10.277Z,762
2014-07-01T08:38:26.982Z,761
2014-07-01T08:38:43.107Z,761
2014-07-01T08:38:59.232Z,761
2014-07-01T08:39:16.045Z,761
2014-07-01T08:39:32.063Z,761
2014-07-01T08:39:48.204Z,761
2014-07-01T08:40:04.282Z,761
2014-07-01T08:40:20.361Z,761
2014-07-01T08:40:37.205Z,760
2014-07-01T08:40:53.299Z,757
2014-07-01T08:41:10.096Z,758
2014-07-01T08:41:26.301Z,761
2014-07-01T08:41:42.285Z,763
2014-07-01T08:41:58.566Z,764
2014-07-01T08:42:14.660Z,765
2014-07-01T08:42:30.834Z,766
2014-07-01T08:42:46.912Z,767
2014-07-01T08:43:03.662Z,768
2014-07-01T08:43:19.787Z,769
2014-07-01T08:43:35.741Z,767
2014-07-01T08:43:52.522Z,768
2014-07-01T08:44:08.616Z,768
2014-07-01T08:44:24.760Z,771
2014-07-01T08:44:40.869Z,770
2014-07-01T08:44:58.229Z,557
2014-07-01T08:45:14.400Z,618
2014-07-01T08:45:30.465Z,698
2014-07-01T08:45:47.090Z,645
2014-07-01T08:46:03.887Z,598
2014-07-01T08:46:20.606Z,728
2014-07-01T08:46:36.795Z,703
2014-07-01T08:46:52.889Z,556
2014-07-01T08:47:09.061Z,721
2014-07-01T08:47:25.780Z,564
2014-07-01T08:47:41.827Z,523
2014-07-01T08:47:57.905Z,513
2014-07-01T08:48:14.109Z,513
2014-07-01T08:48:30.283Z,520
2014-07-01T08:48:46.408Z,544
2014-07-01T08:49:02.471Z,743
2014-07-01T08:49:19.268Z,772
2014-07-01T08:49:35.378Z,774
2014-07-01T08:49:51.566Z,757
2014-07-01T08:50:07.488Z,561
2014-07-01T08:50:24.272Z,623
2014-07-01T08:50:40.412Z,510
2014-07-01T08:50:56.491Z,501
2014-07-01T08:51:12.662Z,493
2014-07-01T08:51:28.586Z,482
2014-07-01T08:51:44.633Z,480
2014-07-01T08:52:00.680Z,484
2014-07-01T08:52:16.774Z,489
2014-07-01T08:52:32.915Z,672
2014-07-01T08:52:49.103Z,488
2014-07-01T08:53:05.197Z,486
2014-07-01T08:53:21.290Z,478
2014-07-01T08:53:38.090Z,469
2014-07-01T08:53:54.200Z,474
2014-07-01T08:54:10.309Z,764
2014-07-01T08:54:26.418Z,765
2014-07-01T08:54:42.404Z,730
2014-07-01T08:54:59.248Z,718
2014-07-01T08:55:15.388Z,740
2014-07-01T08:55:32.169Z,767
2014-07-01T08:55:48.750Z,766
2014-07-01T08:56:05.468Z,766
2014-07-01T08:56:23.593Z,768
2014-07-01T08:56:40.814Z,768
2014-07-01T08:56:58.986Z,737
2014-07-01T08:57:15.783Z,768
2014-07-01T08:57:31.845Z,769
2014-07-01T08:57:47.895Z,769
2014-07-01T08:58:04.020Z,770
2014-07-01T08:58:20.161Z,769
2014-07-01T08:58:36.817Z,769
2014-07-01T08:58:54.209Z,768
2014-07-01T08:59:10.302Z,768
2014-07-01T08:59:26.474Z,768
2014-07-01T08:59:42.601Z,768
2014-07-01T08:59:58.836Z,768
2014-07-01T09:00:14.976Z,767
2014-07-01T09:00:31.086Z,767
2014-07-01T09:00:47.353Z,767
2014-07-01T09:01:03.463Z,767
2014-07-01T09:01:19.525Z,766
2014-07-01T09:01:35.541Z,766
2014-07-01T09:01:52.246Z,767
2014-07-01T09:02:08.402Z,767
2014-07-01T09:02:25.058Z,767
2014-07-01T09:02:41.777Z,766
2014-07-01T09:02:57.998Z,766
2014-07-01T09:03:14.107Z,767
2014-07-01T09:03:30.201Z,767
2014-07-01T09:03:46.873Z,766
2014-07-01T09:04:03.017Z,766
2014-07-01T09:04:19.126Z,765
2014-07-01T09:04:35.204Z,765
2014-07-01T09:04:51.798Z,765
2014-07-01T09:05:07.893Z,765
2014-07-01T09:05:24.143Z,766
2014-07-01T09:05:41.424Z,766
2014-07-01T09:05:57.580Z,766
2014-07-01T09:06:14.349Z,766
2014-07-01T09:06:32.380Z,766
2014-07-01T09:06:48.583Z,766
2014-07-01T09:07:04.802Z,766
2014-07-01T09:07:21.490Z,766
2014-07-01T09:07:38.740Z,766
2014-07-01T09:07:54.803Z,766
2014-07-01T09:08:10.931Z,766
2014-07-01T09:08:27.025Z,766
2014-07-01T09:08:43.165Z,766
2014-07-01T09:08:59.259Z,766
2014-07-01T09:09:15.308Z,766
2014-07-01T09:09:31.464Z,766
2014-07-01T09:09:48.198Z,766
2014-07-01T09:10:05.465Z,765
2014-07-01T09:10:22.059Z,765
2014-07-01T09:10:38.887Z,764
2014-07-01T09:10:54.793Z,764
2014-07-01T09:11:11.576Z,764
2014-07-01T09:11:28.295Z,763
2014-07-01T09:11:44.436Z,762
2014-07-01T09:12:00.498Z,762
2014-07-01T09:12:16.578Z,762
2014-07-01T09:12:33.407Z,761
2014-07-01T09:12:49.500Z,761
2014-07-01T09:13:05.672Z,761
2014-07-01T09:13:21.846Z,760
2014-07-01T09:13:38.455Z,760
2014-07-01T09:13:54.534Z,760
2014-07-01T09:14:10.692Z,760
2014-07-01T09:14:27.426Z,760
2014-07-01T09:14:44.176Z,761
2014-07-01T09:15:00.411Z,761
2014-07-01T09:15:16.538Z,761
2014-07-01T09:15:32.678Z,761
2014-07-01T09:15:49.366Z,761
2014-07-01T09:16:06.084Z,761
2014-07-01T09:16:22.118Z,761
2014-07-01T09:16:38.071Z,760
2014-07-01T09:16:54.805Z,760
2014-07-01T09:17:11.557Z,760
2014-07-01T09:17:28.276Z,761
2014-07-01T09:17:44.995Z,760
2014-07-01T09:18:01.745Z,760
2014-07-01T09:18:17.934Z,760
2014-07-01T09:18:34.044Z,760
2014-07-01T09:18:50.122Z,760
2014-07-01T09:19:06.981Z,760
2014-07-01T09:19:23.107Z,760
2014-07-01T09:19:39.841Z,760
2014-07-01T09:19:56.576Z,760
2014-07-01T09:20:12.657Z,761
2014-07-01T09:20:28.782Z,761
2014-07-01T09:20:44.844Z,761
2014-07-01T09:21:00.985Z,761
2014-07-01T09:21:17.783Z,761
2014-07-01T09:21:34.533Z,761
2014-07-01T09:21:50.658Z,761
2014-07-01T09:22:06.752Z,761
2014-07-01T09:22:22.972Z,762
2014-07-01T09:22:39.097Z,761
2014-07-01T09:22:55.691Z,761
2014-07-01T09:23:11.676Z,762
2014-07-01T09:23:28.288Z,762
2014-07-01T09:23:44.382Z,763
2014-07-01T09:24:00.569Z,764
2014-07-01T09:24:16.742Z,766
2014-07-01T09:24:32.914Z,766
2014-07-01T09:24:48.992Z,767
2014-07-01T09:25:05.086Z,767
2014-07-01T09:25:21.213Z,768
2014-07-01T09:25:37.916Z,768
2014-07-01T09:25:54.557Z,769
2014-07-01T09:26:10.619Z,770
2014-07-01T09:26:26.700Z,772
2014-07-01T09:26:42.856Z,773
2014-07-01T09:26:58.950Z,773
2014-07-01T09:27:15.046Z,722
2014-07-01T09:27:31.202Z,746
2014-07-01T09:27:47.327Z,768
2014-07-01T09:28:03.468Z,747
2014-07-01T09:28:19.563Z,774
2014-07-01T09:28:35.688Z,770
2014-07-01T09:28:51.781Z,772
2014-07-01T09:29:07.922Z,774
2014-07-01T09:29:23.986Z,774
2014-07-01T09:29:40.721Z,719
2014-07-01T09:29:56.955Z,676
2014-07-01T09:30:14.252Z,731
2014-07-01T09:30:30.395Z,724
2014-07-01T09:30:46.504Z,672
2014-07-01T09:31:02.520Z,574
2014-07-01T09:31:18.647Z,572
2014-07-01T09:31:35.350Z,581
2014-07-01T09:31:52.069Z,624
2014-07-01T09:32:08.240Z,635
2014-07-01T09:32:24.961Z,600
2014-07-01T09:32:41.086Z,556
2014-07-01T09:32:57.180Z,537
2014-07-01T09:33:13.946Z,533
2014-07-01T09:33:30.182Z,530
2014-07-01T09:33:46.916Z,525
2014-07-01T09:34:02.994Z,521
2014-07-01T09:34:19.198Z,516
2014-07-01T09:34:35.933Z,512
2014-07-01T09:34:52.777Z,508
2014-07-01T09:35:08.824Z,506
2014-07-01T09:35:24.966Z,505
2014-07-01T09:35:41.279Z,504
2014-07-01T09:35:57.404Z,503
2014-07-01T09:36:13.451Z,501
2014-07-01T09:36:29.671Z,499
2014-07-01T09:36:45.781Z,501
2014-07-01T09:37:02.484Z,504
2014-07-01T09:37:18.468Z,506
2014-07-01T09:37:35.267Z,506
2014-07-01T09:37:51.298Z,504
2014-07-01T09:38:07.376Z,512
2014-07-01T09:38:24.144Z,562
2014-07-01T09:38:40.128Z,589
2014-07-01T09:38:56.988Z,681
2014-07-01T09:39:13.742Z,685
2014-07-01T09:39:31.822Z,709
2014-07-01T09:39:50.400Z,760
2014-07-01T09:40:07.822Z,767
2014-07-01T09:40:23.980Z,748
2014-07-01T09:40:40.777Z,599
2014-07-01T09:40:56.980Z,574
2014-07-01T09:41:13.043Z,568
2014-07-01T09:41:29.138Z,554
2014-07-01T09:41:45.232Z,553
2014-07-01T09:42:02.107Z,692
2014-07-01T09:42:18.185Z,732
2014-07-01T09:42:34.343Z,567
2014-07-01T09:42:50.437Z,536
2014-07-01T09:43:07.140Z,548
2014-07-01T09:43:23.236Z,541
2014-07-01T09:43:39.314Z,703
2014-07-01T09:43:55.502Z,773
2014-07-01T09:44:11.595Z,729
2014-07-01T09:44:28.363Z,613
2014-07-01T09:44:44.488Z,774
2014-07-01T09:45:01.238Z,773
2014-07-01T09:45:17.332Z,773
2014-07-01T09:45:34.143Z,773
2014-07-01T09:45:50.190Z,772
2014-07-01T09:46:06.268Z,771
2014-07-01T09:46:22.409Z,767
2014-07-01T09:46:38.451Z,773
2014-07-01T09:46:54.544Z,771
2014-07-01T09:47:10.560Z,769
2014-07-01T09:47:26.680Z,770
2014-07-01T09:47:42.774Z,769
2014-07-01T09:47:58.993Z,770
2014-07-01T09:48:15.086Z,767
2014-07-01T09:48:31.239Z,768
2014-07-01T09:48:48.708Z,767
2014-07-01T09:49:04.879Z,767
2014-07-01T09:49:21.567Z,768
2014-07-01T09:49:38.210Z,768
2014-07-01T09:49:54.319Z,767
2014-07-01T09:50:11.100Z,768
2014-07-01T09:50:27.335Z,768
2014-07-01T09:50:43.934Z,768
2014-07-01T09:51:00.699Z,769
2014-07-01T09:51:16.824Z,769
2014-07-01T09:51:34.215Z,769
2014-07-01T09:51:51.562Z,769
2014-07-01T09:52:09.468Z,769
2014-07-01T09:52:27.359Z,769
2014-07-01T09:52:44.547Z,769
2014-07-01T09:53:01.953Z,768
2014-07-01T09:53:19.297Z,765
2014-07-01T09:53:37.219Z,766
2014-07-01T09:53:55.190Z,764
2014-07-01T09:54:11.877Z,769
2014-07-01T09:54:28.674Z,770
2014-07-01T09:54:44.893Z,703
2014-07-01T09:55:00.972Z,563
2014-07-01T09:55:17.706Z,567
2014-07-01T09:55:33.768Z,661
2014-07-01T09:55:50.534Z,555
2014-07-01T09:56:06.636Z,546
2014-07-01T09:56:22.792Z,541
2014-07-01T09:56:39.698Z,541
2014-07-01T09:56:56.386Z,683
2014-07-01T09:57:13.113Z,769
2014-07-01T09:57:29.222Z,767
2014-07-01T09:57:45.300Z,766
2014-07-01T09:58:01.441Z,765
2014-07-01T09:58:17.511Z,766
2014-07-01T09:58:33.558Z,766
2014-07-01T09:58:49.761Z,760
2014-07-01T09:59:05.902Z,767
2014-07-01T09:59:21.988Z,769
2014-07-01T09:59:38.113Z,770
2014-07-01T09:59:54.269Z,771
2014-07-01T10:00:11.082Z,772
2014-07-01T10:00:27.149Z,772
2014-07-01T10:00:43.274Z,771
2014-07-01T10:01:00.024Z,771
2014-07-01T10:01:16.259Z,771
2014-07-01T10:01:33.045Z,770
2014-07-01T10:01:49.748Z,769
2014-07-01T10:02:06.498Z,768
2014-07-01T10:02:23.248Z,768
2014-07-01T10:02:39.439Z,768
2014-07-01T10:02:55.643Z,748
2014-07-01T10:03:11.736Z,765
2014-07-01T10:03:27.705Z,763
2014-07-01T10:03:43.912Z,743
2014-07-01T10:04:00.084Z,755
2014-07-01T10:04:16.193Z,746
2014-07-01T10:04:32.287Z,605
2014-07-01T10:04:48.916Z,685
2014-07-01T10:05:04.994Z,675
2014-07-01T10:05:21.057Z,623
2014-07-01T10:05:37.369Z,578
2014-07-01T10:05:53.341Z,634
2014-07-01T10:06:09.419Z,656
2014-07-01T10:06:26.185Z,583
2014-07-01T10:06:42.950Z,559
2014-07-01T10:06:59.124Z,560
2014-07-01T10:07:15.827Z,564
2014-07-01T10:07:31.952Z,638
2014-07-01T10:07:48.171Z,768
2014-07-01T10:08:04.377Z,758
2014-07-01T10:08:20.534Z,768
2014-07-01T10:08:37.893Z,768
2014-07-01T10:08:53.846Z,766
2014-07-01T10:09:09.990Z,765
2014-07-01T10:09:26.724Z,765
2014-07-01T10:09:42.896Z,764
2014-07-01T10:09:58.912Z,763
2014-07-01T10:10:15.617Z,763
2014-07-01T10:10:32.992Z,762
2014-07-01T10:10:50.398Z,761
2014-07-01T10:11:06.664Z,760
2014-07-01T10:11:22.791Z,759
2014-07-01T10:11:39.587Z,758
2014-07-01T10:11:56.212Z,758
2014-07-01T10:12:12.884Z,758
2014-07-01T10:12:29.450Z,758
2014-07-01T10:12:46.778Z,758
2014-07-01T10:13:02.794Z,757
2014-07-01T10:13:20.137Z,757
2014-07-01T10:13:36.875Z,756
2014-07-01T10:13:53.640Z,756
2014-07-01T10:14:10.265Z,755
2014-07-01T10:14:27.500Z,755
2014-07-01T10:14:44.767Z,754
2014-07-01T10:15:01.361Z,755
2014-07-01T10:15:18.049Z,755
2014-07-01T10:15:35.564Z,755
2014-07-01T10:15:52.801Z,755
2014-07-01T10:16:10.144Z,755
2014-07-01T10:16:26.957Z,756
2014-07-01T10:16:44.801Z,757
2014-07-01T10:17:01.397Z,756
2014-07-01T10:17:18.850Z,757
2014-07-01T10:17:37.460Z,757
2014-07-01T10:17:55.397Z,758
2014-07-01T10:18:12.726Z,758
2014-07-01T10:18:30.633Z,759
2014-07-01T10:18:49.133Z,759
2014-07-01T10:19:07.667Z,761
2014-07-01T10:19:25.604Z,759
2014-07-01T10:19:42.229Z,725
2014-07-01T10:19:59.479Z,709
2014-07-01T10:20:15.684Z,568
2014-07-01T10:20:31.793Z,540
2014-07-01T10:20:47.902Z,540
2014-07-01T10:21:04.074Z,546
2014-07-01T10:21:20.170Z,625
2014-07-01T10:21:36.904Z,717
2014-07-01T10:21:52.967Z,754
2014-07-01T10:22:09.092Z,768
2014-07-01T10:22:25.282Z,711
2014-07-01T10:22:42.642Z,572
2014-07-01T10:22:58.892Z,548
2014-07-01T10:23:14.939Z,543
2014-07-01T10:23:31.628Z,538
2014-07-01T10:23:48.394Z,532
2014-07-01T10:24:04.519Z,525
2014-07-01T10:24:20.737Z,518
2014-07-01T10:24:36.802Z,513
2014-07-01T10:24:53.552Z,510
2014-07-01T10:25:09.630Z,509
2014-07-01T10:25:25.708Z,518
2014-07-01T10:25:41.804Z,533
2014-07-01T10:25:57.929Z,552
2014-07-01T10:26:14.054Z,684
2014-07-01T10:26:31.366Z,609
2014-07-01T10:26:48.010Z,760
2014-07-01T10:27:04.729Z,763
2014-07-01T10:27:20.744Z,764
2014-07-01T10:27:38.557Z,731
2014-07-01T10:27:55.262Z,712
2014-07-01T10:28:12.059Z,769
2014-07-01T10:28:28.168Z,766
2014-07-01T10:28:44.340Z,767
2014-07-01T10:29:00.920Z,765
2014-07-01T10:29:17.092Z,765
2014-07-01T10:29:33.248Z,764
2014-07-01T10:29:49.342Z,763
2014-07-01T10:30:05.624Z,762
2014-07-01T10:30:21.640Z,764
2014-07-01T10:30:38.359Z,763
2014-07-01T10:30:54.296Z,760
2014-07-01T10:31:11.034Z,757
2014-07-01T10:31:27.690Z,757
2014-07-01T10:31:43.768Z,744
2014-07-01T10:31:59.862Z,753
2014-07-01T10:32:15.957Z,724
2014-07-01T10:32:32.097Z,584
2014-07-01T10:32:48.269Z,573
2014-07-01T10:33:04.457Z,572
2014-07-01T10:33:21.163Z,564
2014-07-01T10:33:37.272Z,564
2014-07-01T10:33:54.616Z,565
2014-07-01T10:34:11.366Z,572
2014-07-01T10:34:27.648Z,651
2014-07-01T10:34:43.742Z,707
2014-07-01T10:35:01.242Z,755
2014-07-01T10:35:17.320Z,635
2014-07-01T10:35:34.713Z,677
2014-07-01T10:35:51.275Z,680
2014-07-01T10:36:07.416Z,647
2014-07-01T10:36:23.466Z,708
2014-07-01T10:36:40.247Z,756
2014-07-01T10:36:56.403Z,756
2014-07-01T10:37:12.512Z,745
2014-07-01T10:37:28.607Z,755
2014-07-01T10:37:45.373Z,755
2014-07-01T10:38:01.560Z,754
2014-07-01T10:38:17.638Z,753
2014-07-01T10:38:34.359Z,753
2014-07-01T10:38:50.484Z,753
2014-07-01T10:39:07.219Z,752
2014-07-01T10:39:24.015Z,752
2014-07-01T10:39:40.097Z,753
2014-07-01T10:39:56.159Z,752
2014-07-01T10:40:12.237Z,752
2014-07-01T10:40:29.003Z,751
2014-07-01T10:40:46.364Z,751
2014-07-01T10:41:02.302Z,752
2014-07-01T10:41:19.005Z,751
2014-07-01T10:41:35.099Z,751
2014-07-01T10:41:52.460Z,751
2014-07-01T10:42:09.272Z,751
2014-07-01T10:42:25.413Z,752
2014-07-01T10:42:42.085Z,752
2014-07-01T10:42:58.135Z,752
2014-07-01T10:43:15.447Z,752
2014-07-01T10:43:32.697Z,751
2014-07-01T10:43:50.697Z,751
2014-07-01T10:44:07.526Z,751
2014-07-01T10:44:26.089Z,751
2014-07-01T10:44:43.401Z,752
2014-07-01T10:45:00.573Z,752
2014-07-01T10:45:16.529Z,751
2014-07-01T10:45:33.233Z,751
2014-07-01T10:45:50.545Z,751
2014-07-01T10:46:07.827Z,750
2014-07-01T10:46:24.593Z,749
2014-07-01T10:46:41.968Z,749
2014-07-01T10:46:59.890Z,749
2014-07-01T10:47:18.407Z,747
2014-07-01T10:47:36.444Z,746
2014-07-01T10:47:52.990Z,747
2014-07-01T10:48:10.334Z,748
2014-07-01T10:48:27.649Z,750
2014-07-01T10:48:45.008Z,751
2014-07-01T10:49:02.352Z,753
2014-07-01T10:49:19.730Z,753
2014-07-01T10:49:37.730Z,753
2014-07-01T10:49:55.105Z,753
2014-07-01T10:50:13.058Z,753
2014-07-01T10:50:29.700Z,753
2014-07-01T10:50:47.575Z,754
2014-07-01T10:51:04.996Z,754
2014-07-01T10:51:22.843Z,735
2014-07-01T10:51:38.921Z,716
2014-07-01T10:51:55.187Z,576
2014-07-01T10:52:11.265Z,584
2014-07-01T10:52:27.985Z,755
2014-07-01T10:52:44.047Z,754
2014-07-01T10:53:00.172Z,756
2014-07-01T10:53:16.266Z,756
2014-07-01T10:53:33.127Z,755
2014-07-01T10:53:49.252Z,754
2014-07-01T10:54:05.424Z,753
2014-07-01T10:54:21.627Z,753
2014-07-01T10:54:37.724Z,752
2014-07-01T10:54:53.896Z,751
2014-07-01T10:55:10.646Z,750
2014-07-01T10:55:26.693Z,750
2014-07-01T10:55:42.757Z,749
2014-07-01T10:55:58.851Z,748
2014-07-01T10:56:15.632Z,747
2014-07-01T10:56:32.320Z,747
2014-07-01T10:56:49.009Z,748
2014-07-01T10:57:05.838Z,748
2014-07-01T10:57:21.978Z,747
2014-07-01T10:57:38.056Z,747
2014-07-01T10:57:54.011Z,747
2014-07-01T10:58:10.090Z,747
2014-07-01T10:58:26.168Z,747
2014-07-01T10:58:42.230Z,748
2014-07-01T10:58:58.420Z,748
2014-07-01T10:59:15.248Z,748
2014-07-01T10:59:31.326Z,748
2014-07-01T10:59:47.420Z,749
2014-07-01T11:00:04.781Z,749
2014-07-01T11:00:20.828Z,749
2014-07-01T11:00:37.562Z,750
2014-07-01T11:00:55.047Z,750
2014-07-01T11:01:11.142Z,750
2014-07-01T11:01:27.908Z,751
2014-07-01T11:01:43.986Z,751
2014-07-01T11:02:00.611Z,751
2014-07-01T11:02:17.255Z,751
2014-07-01T11:02:33.364Z,750
2014-07-01T11:02:49.505Z,750
2014-07-01T11:03:06.333Z,750
2014-07-01T11:03:22.365Z,751
2014-07-01T11:03:38.521Z,751
2014-07-01T11:03:55.240Z,751
2014-07-01T11:04:11.990Z,751
2014-07-01T11:04:27.977Z,751
2014-07-01T11:04:44.133Z,751
2014-07-01T11:05:00.352Z,750
2014-07-01T11:05:17.023Z,751
2014-07-01T11:05:33.214Z,751
2014-07-01T11:05:49.995Z,751
2014-07-01T11:06:06.808Z,752
2014-07-01T11:06:22.917Z,752
2014-07-01T11:06:39.091Z,754
2014-07-01T11:06:55.278Z,754
2014-07-01T11:07:12.607Z,756
2014-07-01T11:07:29.341Z,752
2014-07-01T11:07:45.452Z,760
2014-07-01T11:08:02.874Z,740
2014-07-01T11:08:19.640Z,703
2014-07-01T11:08:36.405Z,688
2014-07-01T11:08:53.157Z,615
2014-07-01T11:09:11.142Z,624
2014-07-01T11:09:28.564Z,755
2014-07-01T11:09:45.126Z,757
2014-07-01T11:10:01.878Z,753
2014-07-01T11:10:19.019Z,754
2014-07-01T11:10:35.863Z,754
2014-07-01T11:10:52.644Z,754
2014-07-01T11:11:09.428Z,753
2014-07-01T11:11:26.787Z,752
2014-07-01T11:11:43.350Z,751
2014-07-01T11:12:00.100Z,750
2014-07-01T11:12:18.273Z,750
2014-07-01T11:12:34.835Z,750
2014-07-01T11:12:51.554Z,749
2014-07-01T11:13:08.290Z,749
2014-07-01T11:13:24.400Z,749
2014-07-01T11:13:41.603Z,749
2014-07-01T11:13:58.306Z,749
2014-07-01T11:14:15.684Z,748